Time;durP1;ratioP1;P1;durP2;ratioP2;P2;SDS_P1;SDS_P2;PMS_P1;PMS_P2;Temp;Humidity;BMP_temperature;BMP_pressure;BME280_temperature;BME280_humidity;BME280_pressure;Samples;Min_cycle;Max_cycle;Signal;HPM_P1;HPM_P2
2022/08/05 00:02:21;;;;;;;7.53;2.53;;;;;;;9.65;100.00;101900.63;5017111;28;20025;-75
2022/08/05 00:04:48;;;;;;;10.35;2.60;;;;;;;9.71;100.00;101901.03;5004716;28;20029;-77
2022/08/05 00:07:14;;;;;;;4.55;2.30;;;;;;;9.68;100.00;101897.69;5007724;28;20038;-77
2022/08/05 00:09:40;;;;;;;7.47;3.20;;;;;;;9.71;100.00;101909.09;5007764;28;20082;-76
2022/08/05 00:12:06;;;;;;;6.22;2.55;;;;;;;9.63;100.00;101896.38;5010505;28;20448;-77
2022/08/05 00:14:32;;;;;;;9.05;2.92;;;;;;;9.42;100.00;101885.78;5005462;28;20068;-77
2022/08/05 00:16:58;;;;;;;10.65;2.88;;;;;;;9.44;100.00;101905.28;5022375;28;20041;-76
2022/08/05 00:19:24;;;;;;;6.00;2.13;;;;;;;9.36;100.00;101910.50;5026588;28;20025;-77
2022/08/05 00:21:50;;;;;;;7.82;3.17;;;;;;;9.17;100.00;101882.66;5028923;28;20092;-77
2022/08/05 00:24:16;;;;;;;11.23;2.80;;;;;;;9.11;100.00;101887.75;5009319;28;20065;-76
2022/08/05 00:26:41;;;;;;;10.20;2.80;;;;;;;9.16;100.00;101898.91;4992479;28;20143;-77
2022/08/05 00:29:07;;;;;;;7.47;2.28;;;;;;;9.11;100.00;101893.13;5007475;28;20049;-77
2022/08/05 00:31:33;;;;;;;13.48;2.95;;;;;;;9.10;100.00;101902.13;5010285;28;20048;-77
2022/08/05 00:33:59;;;;;;;10.13;2.47;;;;;;;9.01;100.00;101887.72;5020743;28;20026;-76
2022/08/05 00:36:24;;;;;;;7.60;3.25;;;;;;;9.02;100.00;101890.28;5013795;28;20033;-76
2022/08/05 00:38:50;;;;;;;8.95;2.75;;;;;;;8.96;100.00;101893.47;5026182;28;20025;-76
2022/08/05 00:41:27;;;;;;;13.52;2.55;;;;;;;8.89;100.00;101894.16;5018758;28;20037;-77
2022/08/05 00:43:52;;;;;;;7.20;2.15;;;;;;;8.78;100.00;101885.25;5008393;28;20029;-76
2022/08/05 00:46:18;;;;;;;7.45;2.40;;;;;;;8.69;100.00;101891.44;4986438;28;20384;-77
2022/08/05 00:48:44;;;;;;;14.00;3.38;;;;;;;8.64;100.00;101890.16;5009585;28;20352;-76
2022/08/05 00:51:09;;;;;;;11.25;3.10;;;;;;;8.56;100.00;101891.66;5025965;28;20405;-77
2022/08/05 00:53:35;;;;;;;9.60;2.92;;;;;;;8.42;100.00;101880.47;5024674;28;20033;-76
2022/08/05 00:56:01;;;;;;;9.05;2.90;;;;;;;8.51;100.00;101895.75;4993738;28;20038;-77
2022/08/05 00:58:27;;;;;;;7.60;2.72;;;;;;;8.59;100.00;101895.91;5006914;28;20033;-77
2022/08/05 01:00:52;;;;;;;6.60;2.33;;;;;;;8.67;100.00;101898.75;5017752;28;20037;-77
2022/08/05 01:03:18;;;;;;;9.18;2.70;;;;;;;8.66;100.00;101886.34;5008840;28;20484;-76
2022/08/05 01:05:43;;;;;;;8.05;2.42;;;;;;;8.79;100.00;101892.31;5027407;28;20049;-76
2022/08/05 01:08:11;;;;;;;8.60;2.60;;;;;;;8.88;100.00;101897.84;5004250;28;20423;-76
2022/08/05 01:10:42;;;;;;;7.65;2.78;;;;;;;8.97;100.00;101889.84;4988534;28;20044;-77
2022/08/05 01:13:38;;;;;;;5.90;2.50;;;;;;;9.09;100.00;101890.56;5023062;28;20037;-77
2022/08/05 01:16:07;;;;;;;7.43;2.92;;;;;;;9.04;100.00;101865.97;5027151;28;20030;-76
2022/08/05 01:18:37;;;;;;;4.07;2.55;;;;;;;9.15;100.00;101890.00;5008600;28;20127;-76
2022/08/05 01:21:50;;;;;;;10.60;2.70;;;;;;;9.10;100.00;101891.41;5007963;28;20029;-76
2022/08/05 01:24:31;;;;;;;11.40;2.70;;;;;;;8.87;100.00;101866.66;4999845;28;20061;-77
2022/08/05 01:27:16;;;;;;;8.20;2.55;;;;;;;8.86;100.00;101891.75;4995615;28;20076;-76
2022/08/05 01:29:46;;;;;;;9.85;3.45;;;;;;;8.61;100.00;101890.44;5022294;28;20040;-76
2022/08/05 01:32:15;;;;;;;13.15;2.60;;;;;;;8.43;100.00;101890.19;5028762;28;20132;-75
2022/08/05 01:34:54;;;;;;;14.50;2.60;;;;;;;8.29;100.00;101892.22;5011464;28;20053;-76
2022/08/05 01:37:35;;;;;;;11.90;2.88;;;;;;;8.21;100.00;101884.00;5014326;28;20075;-76
2022/08/05 01:40:02;;;;;;;6.35;2.13;;;;;;;8.28;100.00;101879.81;5026942;28;20038;-76
2022/08/05 01:42:29;;;;;;;13.25;3.10;;;;;;;8.37;100.00;101878.16;5024037;28;20033;-76
2022/08/05 01:44:56;;;;;;;6.80;2.72;;;;;;;8.41;100.00;101882.28;5028553;28;20038;-76
2022/08/05 01:47:23;;;;;;;13.68;2.58;;;;;;;8.37;100.00;101888.88;5014602;28;20036;-76
2022/08/05 01:49:51;;;;;;;10.20;2.53;;;;;;;8.39;100.00;101886.94;4998277;28;20403;-77
2022/08/05 01:52:18;;;;;;;10.20;2.92;;;;;;;8.40;100.00;101885.13;5023372;28;20040;-76
2022/08/05 01:55:08;;;;;;;10.30;3.03;;;;;;;8.47;100.00;101880.91;4985660;28;20037;-76
2022/08/05 01:57:40;;;;;;;9.40;2.85;;;;;;;8.45;100.00;101896.28;5037930;28;20033;-76
2022/08/05 02:00:10;;;;;;;13.63;2.70;;;;;;;8.37;100.00;101892.41;4994484;28;20038;-77
2022/08/05 02:02:38;;;;;;;17.23;3.10;;;;;;;8.31;100.00;101887.59;4999796;28;20502;-76
2022/08/05 02:05:07;;;;;;;9.13;2.45;;;;;;;8.11;100.00;101867.03;5014302;28;20124;-76
2022/08/05 02:07:34;;;;;;;12.95;2.75;;;;;;;8.01;100.00;101868.78;5023725;28;20467;-76
2022/08/05 02:10:00;;;;;;;11.88;2.80;;;;;;;8.11;100.00;101875.06;5013681;28;20483;-76
2022/08/05 02:12:52;;;;;;;11.27;2.40;;;;;;;8.19;100.00;101877.91;5013347;28;20032;-76
2022/08/05 02:15:24;;;;;;;9.32;2.35;;;;;;;8.21;100.00;101886.69;5008116;28;20033;-76
2022/08/05 02:17:59;;;;;;;8.52;2.50;;;;;;;8.33;100.00;101871.34;4995500;28;20076;-76
2022/08/05 02:20:27;;;;;;;13.95;2.65;;;;;;;8.36;100.00;101863.91;5023492;28;20041;-76
2022/08/05 02:23:06;;;;;;;8.60;3.00;;;;;;;8.46;100.00;101857.75;5012543;28;20025;-76
2022/08/05 02:25:34;;;;;;;12.00;3.70;;;;;;;8.77;100.00;101885.41;5032612;28;20538;-75
2022/08/05 02:28:01;;;;;;;13.55;3.13;;;;;;;8.94;100.00;101889.25;4990105;28;20030;-76
2022/08/05 02:30:34;;;;;;;10.40;3.03;;;;;;;9.08;100.00;101890.72;5024652;28;20033;-76
2022/08/05 02:33:01;;;;;;;11.15;3.00;;;;;;;9.06;100.00;101885.47;4988708;28;20108;-77
2022/08/05 02:35:27;;;;;;;8.02;2.75;;;;;;;8.97;100.00;101886.28;5018818;28;20037;-76
2022/08/05 02:37:54;;;;;;;16.40;2.83;;;;;;;8.80;100.00;101885.97;5022451;28;20044;-75
2022/08/05 02:40:20;;;;;;;11.07;2.78;;;;;;;8.63;100.00;101892.00;5013239;28;20075;-76
2022/08/05 02:42:46;;;;;;;13.98;3.03;;;;;;;8.59;100.00;101893.22;5021056;28;20091;-76
2022/08/05 02:45:14;;;;;;;7.97;3.00;;;;;;;8.57;100.00;101896.06;4994591;28;20132;-76
2022/08/05 02:47:40;;;;;;;11.82;3.47;;;;;;;8.65;100.00;101891.84;4995452;28;20136;-76
2022/08/05 02:50:07;;;;;;;8.40;3.70;;;;;;;8.80;100.00;101891.31;5024751;28;20555;-76
2022/08/05 02:52:33;;;;;;;17.02;3.85;;;;;;;8.83;100.00;101882.16;5024114;28;20047;-77
2022/08/05 02:55:00;;;;;;;15.57;3.35;;;;;;;8.89;100.00;101881.63;5022400;28;20040;-76
2022/08/05 02:57:26;;;;;;;19.10;3.72;;;;;;;9.14;100.00;101888.31;5011938;28;20033;-76
2022/08/05 02:59:53;;;;;;;15.23;3.42;;;;;;;9.32;100.00;101885.78;5025216;28;20107;-76
2022/08/05 03:02:21;;;;;;;16.85;3.13;;;;;;;9.46;100.00;101884.53;5019474;28;20132;-76
2022/08/05 03:04:48;;;;;;;26.33;4.40;;;;;;;9.44;100.00;101862.34;5008967;28;20113;-75
2022/08/05 03:07:14;;;;;;;11.82;3.20;;;;;;;9.61;100.00;101875.06;5011734;28;20033;-75
2022/08/05 03:09:43;;;;;;;12.45;3.47;;;;;;;9.59;100.00;101873.50;4993726;28;20039;-76
2022/08/05 03:12:08;;;;;;;18.33;4.00;;;;;;;9.42;100.00;101873.22;4996520;28;20044;-76
2022/08/05 03:14:34;;;;;;;10.85;3.53;;;;;;;9.23;100.00;101871.38;4990179;28;20395;-75
2022/08/05 03:17:00;;;;;;;18.73;3.15;;;;;;;9.13;100.00;101870.53;5029977;28;20037;-75
2022/08/05 03:19:25;;;;;;;14.10;3.28;;;;;;;9.02;100.00;101868.81;5010735;28;20029;-76
2022/08/05 03:21:51;;;;;;;15.77;3.20;;;;;;;8.90;100.00;101859.19;5030209;28;20044;-75
2022/08/05 03:24:20;;;;;;;10.18;2.63;;;;;;;8.80;100.00;101866.34;5009809;28;20034;-75
2022/08/05 03:26:46;;;;;;;16.48;3.70;;;;;;;8.79;100.00;101872.72;4996003;28;20044;-76
2022/08/05 03:29:12;;;;;;;16.05;3.58;;;;;;;8.72;100.00;101874.22;5015434;28;20034;-76
2022/08/05 03:31:38;;;;;;;10.55;2.88;;;;;;;8.72;100.00;101872.38;5026177;28;20159;-76
2022/08/05 03:34:07;;;;;;;9.38;3.03;;;;;;;8.73;100.00;101868.75;5024971;28;20130;-75
2022/08/05 03:36:32;;;;;;;11.57;3.20;;;;;;;8.59;100.00;101855.69;5024109;28;20056;-76
2022/08/05 03:39:05;;;;;;;11.98;2.50;;;;;;;8.79;100.00;101873.56;5016011;28;20026;-75
2022/08/05 03:41:31;;;;;;;10.35;3.45;;;;;;;8.92;100.00;101864.41;5024656;28;20133;-75
2022/08/05 03:43:56;;;;;;;8.95;2.58;;;;;;;9.12;100.00;101876.84;5016634;28;20030;-75
2022/08/05 03:46:22;;;;;;;9.75;2.90;;;;;;;9.19;100.00;101880.69;5024949;28;20475;-76
2022/08/05 03:48:48;;;;;;;8.95;2.85;;;;;;;9.11;100.00;101877.00;5005035;28;20557;-75
2022/08/05 03:51:21;;;;;;;12.18;3.03;;;;;;;9.00;100.00;101877.97;5026045;28;20495;-75
2022/08/05 03:53:55;;;;;;;13.30;3.28;;;;;;;8.85;100.00;101882.03;5053986;28;20121;-75
2022/08/05 03:56:25;;;;;;;14.25;3.50;;;;;;;8.78;100.00;101887.09;5010298;28;20056;-77
2022/08/05 03:58:53;;;;;;;9.75;3.10;;;;;;;8.80;100.00;101875.22;5023044;28;20184;-75
2022/08/05 04:01:20;;;;;;;9.00;2.70;;;;;;;8.86;100.00;101879.19;4991301;28;20060;-76
2022/08/05 04:03:48;;;;;;;10.95;2.95;;;;;;;8.85;100.00;101871.31;5003067;28;20075;-75
2022/08/05 04:06:14;;;;;;;15.10;3.53;;;;;;;8.80;100.00;101867.19;5021702;28;20088;-75
2022/08/05 04:08:41;;;;;;;8.35;2.88;;;;;;;8.89;100.00;101872.72;4990409;28;20030;-76
2022/08/05 04:11:07;;;;;;;7.53;2.75;;;;;;;8.87;100.00;101870.19;5014166;28;20102;-75
2022/08/05 04:13:33;;;;;;;7.97;2.60;;;;;;;8.83;100.00;101873.28;4990259;28;20030;-75
2022/08/05 04:15:58;;;;;;;9.88;2.53;;;;;;;8.68;100.00;101862.06;5004675;28;20091;-75
2022/08/05 04:18:24;;;;;;;11.32;2.40;;;;;;;8.44;100.00;101847.19;5023522;28;20034;-76
2022/08/05 04:20:54;;;;;;;14.52;2.80;;;;;;;8.41;100.00;101881.44;4993686;28;20033;-75
2022/08/05 04:23:25;;;;;;;11.02;2.42;;;;;;;8.32;100.00;101875.88;5019204;28;20116;-76
2022/08/05 04:25:51;;;;;;;6.68;2.15;;;;;;;8.31;100.00;101879.53;5006689;28;20128;-76
2022/08/05 04:28:20;;;;;;;10.02;2.83;;;;;;;8.41;100.00;101874.25;5013911;28;20041;-75
2022/08/05 04:30:47;;;;;;;19.95;4.22;;;;;;;8.58;100.00;101878.97;5044900;28;20537;-76
2022/08/05 04:33:14;;;;;;;10.90;2.90;;;;;;;8.77;100.00;101886.25;5000454;28;20036;-75
2022/08/05 04:35:41;;;;;;;8.30;2.92;;;;;;;8.95;100.00;101885.59;5012606;28;20068;-75
2022/08/05 04:38:07;;;;;;;7.53;2.65;;;;;;;9.05;100.00;101885.59;5011385;28;20534;-76
2022/08/05 04:40:37;;;;;;;8.93;2.78;;;;;;;9.20;100.00;101892.25;5025152;28;20490;-76
2022/08/05 04:43:03;;;;;;;14.05;3.33;;;;;;;9.21;100.00;101880.56;5021080;28;20028;-76
2022/08/05 04:45:29;;;;;;;8.32;2.85;;;;;;;9.32;100.00;101891.16;5030090;28;20025;-75
2022/08/05 04:48:05;;;;;;;11.48;2.35;;;;;;;9.36;100.00;101886.34;5021985;28;20037;-75
2022/08/05 04:50:36;;;;;;;10.25;2.92;;;;;;;9.29;100.00;101891.44;5007239;28;20033;-76
2022/08/05 04:53:02;;;;;;;7.78;2.42;;;;;;;9.19;100.00;101885.22;5004086;28;20025;-75
2022/08/05 04:55:28;;;;;;;5.35;1.95;;;;;;;8.97;100.00;101875.56;4993855;28;20036;-75
2022/08/05 04:57:53;;;;;;;6.40;2.83;;;;;;;8.97;100.00;101897.00;5009985;28;20033;-75
2022/08/05 05:00:19;;;;;;;10.30;2.70;;;;;;;8.88;100.00;101903.22;5025483;28;20121;-75
2022/08/05 05:02:45;;;;;;;8.30;2.40;;;;;;;8.67;100.00;101882.66;4994950;28;20095;-75
2022/08/05 05:05:11;;;;;;;9.88;2.40;;;;;;;8.79;100.00;101892.31;5017295;28;20472;-75
2022/08/05 05:07:36;;;;;;;8.32;2.60;;;;;;;8.75;100.00;101896.25;5005201;28;20041;-75
2022/08/05 05:10:04;;;;;;;9.10;2.55;;;;;;;8.80;100.00;101899.38;5025096;28;20068;-76
2022/08/05 05:12:31;;;;;;;5.47;2.38;;;;;;;8.78;100.00;101900.50;4995521;28;20025;-75
2022/08/05 05:14:56;;;;;;;13.43;2.78;;;;;;;8.80;100.00;101890.47;5020847;28;20033;-75
2022/08/05 05:17:22;;;;;;;10.68;2.65;;;;;;;9.10;100.00;101918.22;5023339;28;20038;-75
2022/08/05 05:19:48;;;;;;;7.82;3.20;;;;;;;9.25;100.00;101904.28;5040057;28;20025;-75
2022/08/05 05:22:14;;;;;;;5.15;2.10;;;;;;;9.47;100.00;101905.00;5049346;28;20061;-76
2022/08/05 05:24:39;;;;;;;20.15;3.72;;;;;;;9.69;100.00;101904.72;5031533;28;20026;-75
2022/08/05 05:27:05;;;;;;;8.82;2.63;;;;;;;9.89;100.00;101910.91;5025753;28;20113;-76
2022/08/05 05:29:31;;;;;;;10.80;2.03;;;;;;;10.09;100.00;101916.28;5025055;28;20502;-76
2022/08/05 05:31:56;;;;;;;0.50;0.50;;;;;;;10.15;100.00;101917.53;5030910;28;20029;-76
2022/08/05 05:34:22;;;;;;;0.40;0.40;;;;;;;10.21;100.00;101919.66;5003010;28;20393;-76
2022/08/05 05:36:48;;;;;;;0.30;0.30;;;;;;;10.21;100.00;101925.03;5036490;28;20460;-76
2022/08/05 05:39:13;;;;;;;0.30;0.30;;;;;;;10.19;100.00;101927.00;5012285;28;20025;-76
2022/08/05 05:41:39;;;;;;;0.30;0.30;;;;;;;10.24;100.00;101930.09;5018198;28;20490;-76
2022/08/05 05:44:05;;;;;;;0.40;0.40;;;;;;;10.36;100.00;101933.53;4989891;28;20052;-76
2022/08/05 05:46:30;;;;;;;0.30;0.30;;;;;;;10.51;100.00;101938.28;4999281;28;20041;-76
2022/08/05 05:48:56;;;;;;;0.30;0.30;;;;;;;10.69;100.00;101943.75;5007956;28;20109;-76
2022/08/05 05:51:23;;;;;;;0.40;0.40;;;;;;;10.94;100.00;101944.06;5009879;28;20365;-76
2022/08/05 05:53:50;;;;;;;0.30;0.30;;;;;;;11.08;100.00;101942.72;4995173;28;20045;-76
2022/08/05 05:56:19;;;;;;;0.30;0.30;;;;;;;11.13;100.00;101943.09;4991688;28;20042;-76
2022/08/05 05:58:46;;;;;;;0.30;0.30;;;;;;;11.17;100.00;101937.28;5026820;28;20037;-76
2022/08/05 06:01:13;;;;;;;0.38;0.38;;;;;;;11.38;100.00;101931.63;5024129;28;20034;-76
2022/08/05 06:03:42;;;;;;;0.30;0.30;;;;;;;11.76;100.00;101948.47;4985647;28;20053;-76
2022/08/05 06:06:08;;;;;;;0.30;0.30;;;;;;;11.91;100.00;101935.34;5011898;28;20046;-76
2022/08/05 06:08:33;;;;;;;0.30;0.30;;;;;;;11.99;100.00;101946.19;4996794;28;20043;-76
2022/08/05 06:11:00;;;;;;;0.30;0.30;;;;;;;12.21;100.00;101952.91;5021093;28;20402;-76
2022/08/05 06:13:25;;;;;;;0.30;0.30;;;;;;;12.32;100.00;101954.50;4998048;28;20398;-76
2022/08/05 06:15:51;;;;;;;0.30;0.30;;;;;;;12.39;100.00;101942.09;5006636;28;20026;-76
2022/08/05 06:18:17;;;;;;;0.30;0.30;;;;;;;12.56;100.00;101961.06;5006309;28;20490;-75
2022/08/05 06:20:42;;;;;;;0.40;0.40;;;;;;;12.88;100.00;101957.69;5026544;28;20109;-77
2022/08/05 06:23:08;;;;;;;0.30;0.30;;;;;;;13.11;100.00;101969.63;5004841;28;20065;-77
2022/08/05 06:25:34;;;;;;;0.40;0.40;;;;;;;13.31;100.00;101974.75;5026441;28;20029;-77
2022/08/05 06:27:59;;;;;;;0.40;0.40;;;;;;;13.63;100.00;101974.03;5032373;28;20465;-77
2022/08/05 06:30:26;;;;;;;0.30;0.30;;;;;;;13.93;100.00;101964.41;5012660;28;20037;-77
2022/08/05 06:32:52;;;;;;;0.30;0.30;;;;;;;14.15;100.00;101964.75;5027845;28;20048;-77
2022/08/05 06:35:19;;;;;;;0.30;0.30;;;;;;;14.04;100.00;101972.19;5020841;28;20942;-77
2022/08/05 06:37:45;;;;;;;0.40;0.40;;;;;;;13.96;100.00;101952.41;5005812;28;20503;-75
2022/08/05 06:40:13;;;;;;;0.30;0.30;;;;;;;13.76;100.00;101946.47;5024040;28;20199;-75
2022/08/05 06:42:43;;;;;;;0.30;0.30;;;;;;;13.86;100.00;101979.59;5003647;28;20030;-74
2022/08/05 06:45:10;;;;;;;0.30;0.30;;;;;;;13.90;100.00;101978.28;5009167;28;20075;-77
2022/08/05 06:47:36;;;;;;;0.30;0.30;;;;;;;13.95;100.00;101978.63;4989389;28;20628;-75
2022/08/05 06:50:02;;;;;;;0.30;0.30;;;;;;;13.99;100.00;101985.38;5005983;28;20030;-77
2022/08/05 06:52:27;;;;;;;0.32;0.32;;;;;;;14.18;100.00;101983.34;5024681;28;20048;-76
2022/08/05 06:54:54;;;;;;;0.30;0.30;;;;;;;14.56;100.00;101986.41;4982509;28;20041;-75
2022/08/05 06:57:20;;;;;;;0.38;0.38;;;;;;;14.97;100.00;101980.84;4994204;28;20026;-77
2022/08/05 06:59:45;;;;;;;0.32;0.32;;;;;;;15.47;100.00;101993.16;4995160;28;20475;-75
2022/08/05 07:02:25;;;;;;;0.50;0.50;;;;;;;15.60;100.00;101985.28;5010260;28;20368;-75
2022/08/05 07:05:04;;;;;;;0.30;0.30;;;;;;;15.54;100.00;101976.00;4993011;28;20617;-77
2022/08/05 07:07:31;;;;;;;0.90;0.50;;;;;;;15.78;100.00;101982.31;5010365;28;20136;-74
2022/08/05 07:09:56;;;;;;;0.50;0.50;;;;;;;16.98;100.00;101987.81;4995472;28;20072;-77
2022/08/05 07:17:51;;;;;;;0.50;0.50;;;;;;;21.37;80.21;101989.06;5010286;28;20076;-74
2022/08/05 07:20:20;;;;;;;0.60;0.60;;;;;;;22.06;76.86;101988.25;5007592;28;20038;-74
2022/08/05 07:22:46;;;;;;;2.60;1.70;;;;;;;22.42;73.91;101999.59;5026851;28;20032;-74
2022/08/05 07:25:12;;;;;;;0.30;0.30;;;;;;;20.05;81.74;101980.88;5001813;28;20041;-75
2022/08/05 07:27:38;;;;;;;0.30;0.30;;;;;;;18.80;86.24;101988.41;4988363;28;20051;-74
2022/08/05 07:30:04;;;;;;;0.30;0.30;;;;;;;16.90;93.84;101982.47;5007333;28;20394;-74
2022/08/05 07:32:34;;;;;;;0.50;0.50;;;;;;;18.60;88.46;101985.53;5016168;28;20475;-74
2022/08/05 07:35:00;;;;;;;0.50;0.50;;;;;;;20.15;81.95;101988.66;4993517;28;20036;-75
2022/08/05 07:37:26;;;;;;;0.50;0.50;;;;;;;21.04;77.94;101985.41;4989831;28;20407;-74
2022/08/05 07:39:51;;;;;;;0.60;0.60;;;;;;;21.66;74.78;102002.19;5002673;28;20546;-74
2022/08/05 07:42:17;;;;;;;0.63;0.63;;;;;;;22.05;73.78;102000.25;4996145;28;20046;-74
2022/08/05 07:44:43;;;;;;;4.05;0.80;;;;;;;22.14;70.24;102009.03;5008510;28;20029;-74
2022/08/05 07:47:09;;;;;;;1.02;0.80;;;;;;;22.06;73.08;102023.00;5006132;28;20095;-75
2022/08/05 07:49:34;;;;;;;6.00;0.88;;;;;;;22.35;71.91;102030.59;5002267;28;20045;-73
2022/08/05 07:52:00;;;;;;;5.30;1.25;;;;;;;23.79;70.48;102027.59;4985008;28;20037;-75
2022/08/05 07:54:26;;;;;;;3.20;1.50;;;;;;;24.51;66.72;102021.19;5009554;28;20080;-75
2022/08/05 07:56:52;;;;;;;5.80;1.20;;;;;;;25.40;64.73;102026.47;5014208;28;20033;-74
2022/08/05 07:59:18;;;;;;;3.05;1.40;;;;;;;24.98;62.93;102032.16;5006766;28;20124;-74
2022/08/05 08:01:44;;;;;;;4.95;1.55;;;;;;;23.03;67.41;102023.47;4990128;28;20129;-76
2022/08/05 08:04:09;;;;;;;6.55;1.38;;;;;;;22.79;71.31;102026.00;5004661;28;20258;-74
2022/08/05 08:06:35;;;;;;;8.75;1.38;;;;;;;23.50;67.47;102023.72;4993282;28;20034;-77
2022/08/05 08:09:01;;;;;;;5.47;1.63;;;;;;;23.45;66.68;102010.69;5017918;28;20456;-77
2022/08/05 08:11:28;;;;;;;3.25;1.88;;;;;;;24.83;61.31;102035.41;5006012;28;21959;-75
2022/08/05 08:13:54;;;;;;;3.88;1.23;;;;;;;25.63;61.40;102036.56;5021850;28;20044;-76
2022/08/05 08:16:20;;;;;;;3.35;1.15;;;;;;;25.48;57.92;102045.34;5020471;28;20030;-76
2022/08/05 08:18:45;;;;;;;6.82;1.63;;;;;;;23.80;60.59;102039.41;4987128;28;20042;-76
2022/08/05 08:21:11;;;;;;;5.32;1.83;;;;;;;24.55;58.07;102039.69;4991557;28;20117;-76
2022/08/05 08:23:37;;;;;;;5.45;1.38;;;;;;;24.52;56.65;102042.94;5021411;28;20069;-76
2022/08/05 08:26:05;;;;;;;4.25;2.33;;;;;;;25.31;55.34;102049.97;5017357;28;20111;-76
2022/08/05 08:28:32;;;;;;;4.80;1.30;;;;;;;24.62;53.24;102047.84;4998925;28;20037;-75
2022/08/05 08:30:57;;;;;;;8.45;1.80;;;;;;;22.50;61.88;102059.59;4988962;28;20427;-75
2022/08/05 08:33:23;;;;;;;8.90;1.80;;;;;;;21.66;63.30;102065.16;5026004;28;20124;-76
2022/08/05 08:35:49;;;;;;;4.35;1.50;;;;;;;21.67;63.50;102066.00;5007196;28;20360;-75
2022/08/05 08:38:15;;;;;;;7.32;1.42;;;;;;;21.93;63.25;102057.63;5006276;28;20057;-76
2022/08/05 08:40:41;;;;;;;5.95;1.35;;;;;;;22.77;60.97;102058.28;5012368;28;20025;-75
2022/08/05 08:43:10;;;;;;;7.25;2.10;;;;;;;21.93;64.44;102059.53;5004381;28;20120;-76
2022/08/05 08:45:37;;;;;;;9.52;1.80;;;;;;;20.69;65.05;102060.56;5007110;28;20494;-76
2022/08/05 08:48:05;;;;;;;7.47;1.60;;;;;;;19.18;70.37;102064.31;5019100;28;20092;-76
2022/08/05 08:50:32;;;;;;;5.65;1.63;;;;;;;18.71;75.44;102068.59;5005740;28;20506;-75
2022/08/05 08:53:04;;;;;;;8.00;1.73;;;;;;;18.13;77.68;102073.31;5026767;28;20140;-75
2022/08/05 08:55:30;;;;;;;7.35;1.70;;;;;;;17.55;78.66;102076.81;4987959;28;20040;-76
2022/08/05 08:57:59;;;;;;;7.15;1.80;;;;;;;16.93;83.55;102066.31;5009957;28;20479;-75
2022/08/05 09:00:25;;;;;;;8.35;1.25;;;;;;;16.64;85.44;102084.22;5004664;28;20060;-76
2022/08/05 09:02:52;;;;;;;15.82;3.25;;;;;;;16.69;85.23;102062.78;5011900;28;20444;-75
2022/08/05 09:05:18;;;;;;;10.25;1.95;;;;;;;16.96;83.63;102073.25;5031182;28;20603;-75
2022/08/05 09:07:44;;;;;;;10.13;1.75;;;;;;;17.08;72.76;102086.22;5008781;28;20057;-79
2022/08/05 09:10:09;;;;;;;9.98;1.60;;;;;;;17.07;77.76;102084.53;4995515;28;20099;-79
2022/08/05 09:12:37;;;;;;;7.20;1.77;;;;;;;17.25;75.59;102075.16;5028787;28;20034;-79
2022/08/05 09:15:03;;;;;;;10.23;1.98;;;;;;;18.08;68.22;102094.84;5009408;28;20043;-79
2022/08/05 09:17:29;;;;;;;5.20;1.60;;;;;;;20.03;64.86;102080.44;4996312;28;20498;-79
2022/08/05 09:19:55;;;;;;;8.40;1.98;;;;;;;23.01;51.62;102092.25;5025477;28;20026;-79
2022/08/05 09:22:21;;;;;;;7.65;1.50;;;;;;;24.88;45.31;102090.56;4992242;28;20052;-79
2022/08/05 09:25:00;;;;;;;10.23;2.17;;;;;;;25.60;39.74;102089.41;5029856;28;20073;-79
2022/08/05 09:27:36;;;;;;;6.50;1.95;;;;;;;24.98;39.56;102088.03;5011782;28;20041;-79
2022/08/05 09:30:07;;;;;;;3.70;1.70;;;;;;;25.91;36.41;102092.78;4995790;28;20025;-79
2022/08/05 09:32:36;;;;;;;5.07;1.80;;;;;;;27.13;34.96;102075.53;5025357;28;20107;-79
2022/08/05 09:35:15;;;;;;;7.78;1.45;;;;;;;25.04;37.32;102077.97;5028319;28;20032;-80
2022/08/05 09:37:52;;;;;;;7.70;2.17;;;;;;;24.36;38.82;102091.16;4995264;28;20025;-79
2022/08/05 09:40:44;;;;;;;5.15;1.45;;;;;;;24.82;37.48;102099.75;5041552;28;20364;-81
2022/08/05 09:43:24;;;;;;;;;;;;;;;26.90;34.01;102106.09;5003666;28;20132;-79
2022/08/05 09:45:49;;;;;;;8.65;1.40;;;;;;;27.27;32.95;102102.78;5029282;28;19913;-80
2022/08/05 09:48:24;;;;;;;7.20;1.27;;;;;;;25.35;35.77;102111.72;5037699;28;20395;-81
2022/08/05 09:50:55;;;;;;;4.30;0.90;;;;;;;22.91;40.88;102110.25;4999886;28;20021;-80
2022/08/05 09:53:21;;;;;;;9.85;1.77;;;;;;;21.22;45.27;102106.94;5006687;28;20041;-77
2022/08/05 09:55:50;;;;;;;3.75;1.00;;;;;;;20.73;47.33;102105.56;5022878;28;20044;-77
2022/08/05 09:58:19;;;;;;;5.55;1.30;;;;;;;20.19;51.29;102110.94;5020775;28;20096;-77
2022/08/05 10:00:59;;;;;;;3.47;1.45;;;;;;;20.75;47.79;102104.28;5019386;28;20541;-79
2022/08/05 10:03:25;;;;;;;3.28;1.20;;;;;;;20.37;49.14;102117.69;4992386;28;20030;-82
2022/08/05 10:06:08;;;;;;;7.45;1.35;;;;;;;19.95;49.97;102116.94;5033070;28;20034;-77
2022/08/05 10:08:36;;;;;;;4.40;1.30;;;;;;;20.37;48.99;102112.22;5016834;28;20033;-77
2022/08/05 10:11:04;;;;;;;3.08;1.17;;;;;;;22.00;42.16;102100.59;5017337;28;20034;-80
2022/08/05 10:13:36;;;;;;;6.05;1.08;;;;;;;22.15;43.20;102107.44;5012605;28;20189;-78
2022/08/05 10:16:04;;;;;;;4.30;0.90;;;;;;;21.81;42.29;102114.16;4987560;28;20044;-82
2022/08/05 10:18:31;;;;;;;1.83;0.95;;;;;;;21.33;43.25;102124.59;5016905;28;20096;-78
2022/08/05 10:21:05;;;;;;;1.92;1.00;;;;;;;22.52;38.93;102120.50;4999573;28;20147;-78
2022/08/05 10:23:32;;;;;;;3.88;1.15;;;;;;;22.02;38.66;102120.38;5011791;28;20025;-81
2022/08/05 10:26:00;;;;;;;1.38;1.05;;;;;;;22.38;39.09;102123.31;4990309;28;20475;-81
2022/08/05 10:28:27;;;;;;;3.92;1.25;;;;;;;22.20;40.16;102123.22;4974549;28;20053;-80
2022/08/05 10:30:53;;;;;;;3.08;0.90;;;;;;;21.91;39.91;102119.16;4979857;28;20088;-81
2022/08/05 10:33:22;;;;;;;2.80;1.08;;;;;;;22.24;39.99;102121.75;4996117;28;20535;-80
2022/08/05 10:35:49;;;;;;;4.75;1.17;;;;;;;22.33;40.04;102133.28;5008740;28;20732;-81
2022/08/05 10:38:15;;;;;;;4.43;1.23;;;;;;;21.27;43.02;102126.31;4965380;28;20033;-81
2022/08/05 10:40:53;;;;;;;3.10;0.80;;;;;;;20.60;44.34;102131.81;4971361;28;20029;-80
2022/08/05 10:43:18;;;;;;;3.47;0.90;;;;;;;19.98;45.95;102135.66;4997420;28;20029;-81
2022/08/05 10:45:56;;;;;;;1.05;0.85;;;;;;;19.84;46.28;102136.66;5005635;28;20033;-80
2022/08/05 10:48:48;;;;;;;4.50;1.40;;;;;;;20.25;46.14;102142.03;5001039;28;20060;-79
2022/08/05 10:51:16;;;;;;;1.95;0.70;;;;;;;21.73;42.61;102145.38;5021179;28;20050;-80
2022/08/05 10:53:55;;;;;;;3.85;1.02;;;;;;;21.16;44.49;102154.31;5003952;28;20033;-80
2022/08/05 10:56:23;;;;;;;4.30;1.30;;;;;;;24.16;39.97;102147.50;5005911;28;20041;-79
2022/08/05 10:59:03;;;;;;;2.75;1.40;;;;;;;27.11;34.19;102148.66;5023912;28;20417;-80
2022/08/05 11:01:33;;;;;;;2.50;1.20;;;;;;;27.32;32.83;102149.81;5000631;28;20033;-80
2022/08/05 11:04:19;;;;;;;2.33;1.13;;;;;;;28.48;31.30;102143.19;5008741;28;20030;-80
2022/08/05 11:06:59;;;;;;;4.50;1.67;;;;;;;28.76;30.57;102158.66;5010829;28;20467;-79
2022/08/05 11:09:26;;;;;;;2.63;1.40;;;;;;;26.76;31.31;102155.28;5025896;28;20109;-79
2022/08/05 11:11:53;;;;;;;2.13;1.00;;;;;;;28.25;30.02;102149.84;4970908;28;20483;-80
2022/08/05 11:14:31;;;;;;;3.78;1.45;;;;;;;28.97;29.57;102151.34;5025056;28;20097;-79
2022/08/05 11:17:29;;;;;;;2.78;1.20;;;;;;;29.27;28.33;102156.28;5023441;28;20081;-78
2022/08/05 11:19:57;;;;;;;4.00;1.45;;;;;;;28.04;29.49;102132.22;5016041;28;20042;-79
2022/08/05 11:22:40;;;;;;;4.15;1.40;;;;;;;28.04;30.28;102157.09;5019988;28;20537;-79
2022/08/05 11:25:28;;;;;;;3.45;1.50;;;;;;;29.41;29.01;102158.56;5040150;28;20040;-80
2022/08/05 11:28:15;;;;;;;3.42;1.25;;;;;;;30.33;26.26;102145.09;5010485;28;20025;-79
2022/08/05 11:30:56;;;;;;;1.98;1.17;;;;;;;27.68;29.71;102161.31;5012554;28;20042;-79
2022/08/05 11:33:31;;;;;;;2.45;1.40;;;;;;;28.76;28.24;102144.81;5004914;28;20041;-79
2022/08/05 11:36:05;;;;;;;0.95;0.60;;;;;;;24.88;32.43;102136.50;5006462;28;20445;-79